createdAt,value
2023-04-17T00:00:17.742Z,20.8295
2023-04-17T00:01:20.335Z,20.8282
2023-04-17T00:02:23.028Z,20.8303
2023-04-17T00:03:25.557Z,20.8291
2023-04-17T00:04:28.156Z,20.8270
2023-04-17T00:05:30.696Z,20.8271
2023-04-17T00:06:33.210Z,20.8297
2023-04-17T00:07:35.824Z,20.8291
2023-04-17T00:08:38.655Z,20.8294
2023-04-17T00:09:40.995Z,20.8300
2023-04-17T00:10:44.442Z,20.8275
2023-04-17T00:11:46.157Z,20.8276
2023-04-17T00:12:48.707Z,20.8263
2023-04-17T00:13:51.322Z,20.8256
2023-04-17T00:14:54.078Z,20.8245
2023-04-17T00:15:56.595Z,20.8245
2023-04-17T00:16:59.044Z,20.8245
2023-04-17T00:18:01.777Z,20.8264
2023-04-17T00:19:04.204Z,20.8273
2023-04-17T00:20:07.122Z,20.8258
2023-04-17T00:21:09.375Z,20.8245
2023-04-17T00:22:11.980Z,20.8259
2023-04-17T00:23:14.542Z,20.8261
2023-04-17T00:24:17.148Z,20.8247
2023-04-17T00:25:19.712Z,20.8242
2023-04-17T00:26:22.304Z,20.8260
2023-04-17T00:27:24.859Z,20.8240
2023-04-17T00:28:27.474Z,20.8236
2023-04-17T00:29:30.029Z,20.8218
2023-04-17T00:30:32.642Z,20.8209
2023-04-17T00:31:35.226Z,20.8219
2023-04-17T00:32:37.890Z,20.8239
2023-04-17T00:33:40.566Z,20.8223
2023-04-17T00:34:42.974Z,20.8208
2023-04-17T00:35:45.532Z,20.8218
2023-04-17T00:36:48.136Z,20.8216
2023-04-17T00:37:50.720Z,20.8212
2023-04-17T00:38:53.311Z,20.8213
2023-04-17T00:39:55.865Z,20.8211
2023-04-17T00:40:58.469Z,20.8204
2023-04-17T00:42:01.319Z,20.8209
2023-04-17T00:43:03.613Z,20.8218
2023-04-17T00:44:06.365Z,20.8209
2023-04-17T00:45:08.780Z,20.8183
2023-04-17T00:46:11.439Z,20.8167
2023-04-17T00:47:13.956Z,20.8165
2023-04-17T00:48:16.576Z,20.8171
2023-04-17T00:49:19.127Z,20.8176
2023-04-17T00:50:21.747Z,20.8165
2023-04-17T00:51:24.301Z,20.8175
2023-04-17T00:52:27.109Z,20.8176
2023-04-17T00:53:29.463Z,20.8163
2023-04-17T00:54:32.090Z,20.8166
2023-04-17T00:55:34.645Z,20.8156
2023-04-17T00:56:37.246Z,20.8159
2023-04-17T00:57:39.812Z,20.8154
2023-04-17T00:58:42.406Z,20.8148
2023-04-17T00:59:44.960Z,20.8149
2023-04-17T01:00:47.606Z,20.8152
2023-04-17T01:01:50.208Z,20.8157
2023-04-17T01:02:52.829Z,20.8169
2023-04-17T01:03:55.764Z,20.8161
2023-04-17T01:04:57.987Z,20.8147
2023-04-17T01:06:00.538Z,20.8134
2023-04-17T01:07:03.173Z,20.8117
2023-04-17T01:08:05.703Z,20.8123
2023-04-17T01:09:08.306Z,20.8108
2023-04-17T01:10:10.862Z,20.8104
2023-04-17T01:11:13.469Z,20.8097
2023-04-17T01:12:16.023Z,20.8085
2023-04-17T01:13:18.664Z,20.8083
2023-04-17T01:14:21.209Z,20.8081
2023-04-17T01:15:23.821Z,20.8087
2023-04-17T01:16:26.380Z,20.8091
2023-04-17T01:17:28.987Z,20.8103
2023-04-17T01:18:31.527Z,20.8136
2023-04-17T01:19:34.350Z,20.8131
2023-04-17T01:20:37.006Z,20.8137
2023-04-17T01:21:39.308Z,20.8129
2023-04-17T01:22:41.854Z,20.8108
2023-04-17T01:23:44.470Z,20.8115
2023-04-17T01:24:47.039Z,20.8113
2023-04-17T01:25:49.637Z,20.8112
2023-04-17T01:26:52.202Z,20.8104
2023-04-17T01:27:54.795Z,20.8112
2023-04-17T01:28:57.409Z,20.8114
2023-04-17T01:29:59.967Z,20.8097
2023-04-17T01:31:02.566Z,20.8080
2023-04-17T01:32:05.134Z,20.8069
2023-04-17T01:33:07.707Z,20.8083
2023-04-17T01:34:10.306Z,20.8077
2023-04-17T01:35:12.874Z,20.8055
2023-04-17T01:36:15.485Z,20.8045
2023-04-17T01:37:18.041Z,20.8050
2023-04-17T01:38:20.664Z,20.8046
2023-04-17T01:39:23.508Z,20.8050
2023-04-17T01:40:25.835Z,20.8034
2023-04-17T01:41:28.401Z,20.8049
2023-04-17T01:42:30.990Z,20.8042
2023-04-17T01:43:33.569Z,20.8032
2023-04-17T01:44:36.164Z,20.8014
2023-04-17T01:45:38.760Z,20.7999
2023-04-17T01:46:41.409Z,20.8006
2023-04-17T01:47:43.926Z,20.8011
2023-04-17T01:48:46.628Z,20.8011
2023-04-17T01:49:49.069Z,20.8000
2023-04-17T01:50:51.681Z,20.7992
2023-04-17T01:51:54.243Z,20.7989
2023-04-17T01:52:56.847Z,20.7996
2023-04-17T01:53:59.407Z,20.7975
2023-04-17T01:55:02.020Z,20.8004
2023-04-17T01:56:04.586Z,20.7993
2023-04-17T01:57:07.202Z,20.7985
2023-04-17T01:58:09.759Z,20.7992
2023-04-17T01:59:12.504Z,20.7991
2023-04-17T02:00:14.928Z,20.7984
2023-04-17T02:01:17.559Z,20.7971
2023-04-17T02:02:20.332Z,20.7950
2023-04-17T02:03:22.814Z,20.7944
2023-04-17T02:04:25.329Z,20.7942
2023-04-17T02:05:27.883Z,20.7941
2023-04-17T02:06:30.446Z,20.7943
2023-04-17T02:07:33.058Z,20.7934
2023-04-17T02:08:35.617Z,20.7914
2023-04-17T02:09:38.235Z,20.7903
2023-04-17T02:10:40.793Z,20.7892
2023-04-17T02:11:43.404Z,20.7895
2023-04-17T02:12:45.966Z,20.7892
2023-04-17T02:13:48.576Z,20.7880
2023-04-17T02:14:51.137Z,20.7902
2023-04-17T02:15:53.771Z,20.7917
2023-04-17T02:16:56.321Z,20.7912
2023-04-17T02:17:59.018Z,20.7906
2023-04-17T02:19:01.488Z,20.7901
2023-04-17T02:20:04.102Z,20.7897
2023-04-17T02:21:06.661Z,20.7885
2023-04-17T02:22:09.266Z,20.7878
2023-04-17T02:23:11.843Z,20.7886
2023-04-17T02:24:14.434Z,20.7898
2023-04-17T02:25:17.295Z,20.7893
2023-04-17T02:26:19.613Z,20.7868
2023-04-17T02:27:22.163Z,20.7867
2023-04-17T02:28:24.783Z,20.7851
2023-04-17T02:29:27.355Z,20.7853
2023-04-17T02:30:29.942Z,20.7821
2023-04-17T02:31:32.546Z,20.7827
2023-04-17T02:32:35.139Z,20.7838
2023-04-17T02:33:37.685Z,20.7839
2023-04-17T02:34:40.273Z,20.7850
2023-04-17T02:35:42.829Z,20.7858
2023-04-17T02:36:45.453Z,20.7853
2023-04-17T02:37:48.017Z,20.7848
2023-04-17T02:38:50.612Z,20.7863
2023-04-17T02:39:53.183Z,20.7851
2023-04-17T02:40:55.778Z,20.7867
2023-04-17T02:41:58.332Z,20.7847
2023-04-17T02:43:00.952Z,20.7839
2023-04-17T02:44:03.513Z,20.7830
2023-04-17T02:45:06.121Z,20.7836
2023-04-17T02:46:08.825Z,20.7822
2023-04-17T02:47:11.289Z,20.7812
2023-04-17T02:48:13.855Z,20.7803
2023-04-17T02:49:16.449Z,20.7795
2023-04-17T02:50:19.017Z,20.7799
2023-04-17T02:51:21.623Z,20.7797
2023-04-17T02:52:24.237Z,20.7794
2023-04-17T02:53:26.783Z,20.7764
2023-04-17T02:54:29.340Z,20.7759
2023-04-17T02:55:31.946Z,20.7776
2023-04-17T02:56:34.517Z,20.7790
2023-04-17T02:57:37.113Z,20.7791
2023-04-17T02:58:39.711Z,20.7781
2023-04-17T02:59:42.292Z,20.7783
2023-04-17T03:00:44.853Z,20.7799
2023-04-17T03:01:47.504Z,20.7803
2023-04-17T03:02:50.155Z,20.7794
2023-04-17T03:03:52.911Z,20.7786
2023-04-17T03:04:55.170Z,20.7779
2023-04-17T03:05:57.780Z,20.7802
2023-04-17T03:07:00.337Z,20.7798
2023-04-17T03:08:02.943Z,20.7779
2023-04-17T03:09:05.518Z,20.7747
2023-04-17T03:10:08.118Z,20.7729
2023-04-17T03:11:10.670Z,20.7737
2023-04-17T03:12:13.285Z,20.7727
2023-04-17T03:13:15.840Z,20.7717
2023-04-17T03:14:18.484Z,20.7706
2023-04-17T03:15:21.032Z,20.7694
2023-04-17T03:16:23.910Z,20.7676
2023-04-17T03:17:26.201Z,20.7691
2023-04-17T03:18:28.795Z,20.7687
2023-04-17T03:19:31.338Z,20.7700
2023-04-17T03:20:33.956Z,20.7724
2023-04-17T03:21:36.505Z,20.7733
2023-04-17T03:22:39.109Z,20.7735
2023-04-17T03:23:41.673Z,20.7710
2023-04-17T03:24:44.525Z,20.7688
2023-04-17T03:25:46.849Z,20.7691
2023-04-17T03:26:49.480Z,20.7687
2023-04-17T03:27:52.014Z,20.7663
2023-04-17T03:28:54.618Z,20.7659
2023-04-17T03:29:57.199Z,20.7668
2023-04-17T03:30:59.788Z,20.7681
2023-04-17T03:32:02.455Z,20.7679
2023-04-17T03:33:05.009Z,20.7654
2023-04-17T03:34:07.514Z,20.7668
2023-04-17T03:35:10.120Z,20.7673
2023-04-17T03:36:12.685Z,20.7667
2023-04-17T03:37:15.296Z,20.7669
2023-04-17T03:38:17.861Z,20.7670
2023-04-17T03:39:20.854Z,20.7667
2023-04-17T03:40:23.030Z,20.7669
2023-04-17T03:41:25.637Z,20.7656
2023-04-17T03:42:28.203Z,20.7645
2023-04-17T03:43:30.804Z,20.7619
2023-04-17T03:44:33.358Z,20.7617
2023-04-17T03:45:36.233Z,20.7626
2023-04-17T03:46:38.527Z,20.7648
2023-04-17T03:47:41.167Z,20.7637
2023-04-17T03:48:43.703Z,20.7630
2023-04-17T03:49:46.310Z,20.7601
2023-04-17T03:50:48.898Z,20.7580
2023-04-17T03:51:51.477Z,20.7562
2023-04-17T03:52:54.035Z,20.7553
2023-04-17T03:53:56.642Z,20.7557
2023-04-17T03:54:59.201Z,20.7554
2023-04-17T03:56:01.814Z,20.7542
2023-04-17T03:57:04.382Z,20.7524
2023-04-17T03:58:06.992Z,20.7522
2023-04-17T03:59:09.785Z,20.7524
2023-04-17T04:00:12.161Z,20.7529
2023-04-17T04:01:14.793Z,20.7533
2023-04-17T04:02:17.435Z,20.7540
2023-04-17T04:03:20.042Z,20.7532
2023-04-17T04:04:22.827Z,20.7508
2023-04-17T04:05:25.402Z,20.7509
2023-04-17T04:06:27.664Z,20.7481
2023-04-17T04:07:30.269Z,20.7475
2023-04-17T04:08:32.835Z,20.7471
2023-04-17T04:09:35.396Z,20.7455
2023-04-17T04:10:37.999Z,20.7451
2023-04-17T04:11:40.554Z,20.7473
2023-04-17T04:12:43.165Z,20.7483
2023-04-17T04:13:45.722Z,20.7484
2023-04-17T04:14:48.326Z,20.7488
2023-04-17T04:15:50.900Z,20.7477
2023-04-17T04:16:53.496Z,20.7472
2023-04-17T04:17:56.109Z,20.7480
2023-04-17T04:18:58.676Z,20.7477
2023-04-17T04:20:01.269Z,20.7461
2023-04-17T04:21:03.838Z,20.7451
2023-04-17T04:22:06.959Z,20.7434
2023-04-17T04:23:08.989Z,20.7437
2023-04-17T04:24:11.552Z,20.7434
2023-04-17T04:25:14.169Z,20.7432
2023-04-17T04:26:16.713Z,20.7438
2023-04-17T04:27:19.322Z,20.7435
2023-04-17T04:28:21.883Z,20.7442
2023-04-17T04:29:24.493Z,20.7451
2023-04-17T04:30:27.060Z,20.7442
2023-04-17T04:31:29.843Z,20.7424
2023-04-17T04:32:32.298Z,20.7420
2023-04-17T04:33:35.898Z,20.7409
2023-04-17T04:34:37.380Z,20.7430
2023-04-17T04:35:40.007Z,20.7421
2023-04-17T04:36:42.553Z,20.7413
2023-04-17T04:37:45.164Z,20.7406
2023-04-17T04:38:47.726Z,20.7429
2023-04-17T04:39:50.325Z,20.7394
2023-04-17T04:40:52.944Z,20.7381
2023-04-17T04:41:55.502Z,20.7357
2023-04-17T04:42:58.073Z,20.7319
2023-04-17T04:44:00.669Z,20.7297
2023-04-17T04:45:03.239Z,20.7319
2023-04-17T04:46:05.831Z,20.7344
2023-04-17T04:47:08.546Z,20.7339
2023-04-17T04:48:10.995Z,20.7346
2023-04-17T04:49:13.621Z,20.7331
2023-04-17T04:50:17.388Z,20.7363
2023-04-17T04:51:18.755Z,20.7368
2023-04-17T04:52:21.340Z,20.7367
2023-04-17T04:53:24.123Z,20.7349
2023-04-17T04:54:26.514Z,20.7332
2023-04-17T04:55:29.062Z,20.7316
2023-04-17T04:56:33.040Z,20.7312
2023-04-17T04:57:34.229Z,20.7310
2023-04-17T04:58:36.841Z,20.7313
2023-04-17T04:59:39.402Z,20.7281
2023-04-17T05:00:42.052Z,20.7273
2023-04-17T05:01:44.866Z,20.7295
2023-04-17T05:02:47.278Z,20.7319
2023-04-17T05:03:49.874Z,20.7283
2023-04-17T05:04:52.367Z,20.7287
2023-04-17T05:05:54.903Z,20.7271
2023-04-17T05:06:57.612Z,20.7234
2023-04-17T05:08:00.070Z,20.7215
2023-04-17T05:09:02.650Z,20.7187
2023-04-17T05:10:05.285Z,20.7193
2023-04-17T05:11:07.819Z,20.7203
2023-04-17T05:12:10.508Z,20.7194
2023-04-17T05:13:13.084Z,20.7195
2023-04-17T05:14:15.731Z,20.7186
2023-04-17T05:15:18.247Z,20.7181
2023-04-17T05:16:20.882Z,20.7154
2023-04-17T05:17:23.432Z,20.7130
2023-04-17T05:18:26.015Z,20.7105
2023-04-17T05:19:28.564Z,20.7113
2023-04-17T05:20:31.184Z,20.7122
2023-04-17T05:21:33.735Z,20.7114
2023-04-17T05:22:36.339Z,20.7112
2023-04-17T05:23:38.891Z,20.7120
2023-04-17T05:24:41.507Z,20.7116
2023-04-17T05:25:44.064Z,20.7132
2023-04-17T05:26:46.668Z,20.7141
2023-04-17T05:27:49.281Z,20.7156
2023-04-17T05:28:51.828Z,20.7155
2023-04-17T05:29:54.385Z,20.7177
2023-04-17T05:30:56.989Z,20.7199
2023-04-17T05:31:59.604Z,20.7189
2023-04-17T05:33:02.222Z,20.7181
2023-04-17T05:34:04.868Z,20.7179
2023-04-17T05:35:07.344Z,20.7218
2023-04-17T05:36:09.893Z,20.7246
2023-04-17T05:37:12.484Z,20.7254
2023-04-17T05:38:15.045Z,20.7272
2023-04-17T05:39:17.665Z,20.7270
2023-04-17T05:40:20.210Z,20.7302
2023-04-17T05:41:22.822Z,20.7365
2023-04-17T05:42:25.379Z,20.7407
2023-04-17T05:43:28.005Z,20.7407
2023-04-17T05:44:30.548Z,20.7419
2023-04-17T05:45:33.329Z,20.7436
2023-04-17T05:46:35.717Z,20.7497
2023-04-17T05:47:38.515Z,20.7537
2023-04-17T05:48:40.876Z,20.7537
2023-04-17T05:49:43.496Z,20.7584
2023-04-17T05:50:46.058Z,20.7634
2023-04-17T05:51:48.672Z,20.7675
2023-04-17T05:52:51.236Z,20.7709
2023-04-17T05:53:53.851Z,20.7737
2023-04-17T05:54:56.389Z,20.7758
2023-04-17T05:55:58.995Z,20.7807
2023-04-17T05:57:01.555Z,20.7846
2023-04-17T05:58:16.862Z,20.7874
2023-04-17T05:59:07.753Z,20.7899
2023-04-17T06:00:09.336Z,20.7921
2023-04-17T06:01:11.914Z,20.7928
2023-04-17T06:02:14.587Z,20.7954
2023-04-17T06:03:18.162Z,20.8010
2023-04-17T06:04:19.987Z,20.8046
2023-04-17T06:05:22.327Z,20.8124
2023-04-17T06:06:24.846Z,20.8263
2023-04-17T06:07:27.401Z,20.8331
2023-04-17T06:08:30.016Z,20.8352
2023-04-17T06:09:32.581Z,20.8383
2023-04-17T06:10:35.198Z,20.8342
2023-04-17T06:11:37.748Z,20.8289
2023-04-17T06:12:40.361Z,20.8240
2023-04-17T06:13:42.966Z,20.8197
2023-04-17T06:14:45.525Z,20.8161
2023-04-17T06:15:48.077Z,20.8149
2023-04-17T06:16:50.850Z,20.8126
2023-04-17T06:17:53.319Z,20.8105
2023-04-17T06:18:55.860Z,20.8090
2023-04-17T06:19:58.414Z,20.8092
2023-04-17T06:21:01.051Z,20.8069
2023-04-17T06:22:03.584Z,20.8066
2023-04-17T06:23:06.196Z,20.8078
2023-04-17T06:24:08.764Z,20.8083
2023-04-17T06:25:11.915Z,20.8097
2023-04-17T06:26:13.929Z,20.8130
2023-04-17T06:27:16.533Z,20.8142
2023-04-17T06:28:19.099Z,20.8144
2023-04-17T06:29:21.734Z,20.8162
2023-04-17T06:30:24.256Z,20.8188
2023-04-17T06:31:26.888Z,20.8227
2023-04-17T06:32:29.484Z,20.8224
2023-04-17T06:33:32.062Z,20.8252
2023-04-17T06:34:34.604Z,20.8351
2023-04-17T06:35:37.206Z,20.8446
2023-04-17T06:36:39.792Z,20.8477
2023-04-17T06:37:42.576Z,20.8483
2023-04-17T06:38:44.933Z,20.8484
2023-04-17T06:39:47.535Z,20.8482
2023-04-17T06:40:52.131Z,20.8498
2023-04-17T06:41:52.703Z,20.8538
2023-04-17T06:42:55.308Z,20.8543
2023-04-17T06:43:57.865Z,20.8604
2023-04-17T06:45:00.434Z,20.8889
2023-04-17T06:46:03.054Z,20.9059
2023-04-17T06:47:05.593Z,20.9164
2023-04-17T06:48:08.201Z,20.9225
2023-04-17T06:49:11.038Z,20.9317
2023-04-17T06:50:13.387Z,20.9496
2023-04-17T06:51:15.917Z,20.9595
2023-04-17T06:52:18.525Z,20.9583
2023-04-17T06:53:21.086Z,20.9521
2023-04-17T06:54:23.700Z,20.9428
2023-04-17T06:55:26.277Z,20.9355
2023-04-17T06:56:28.893Z,20.9288
2023-04-17T06:57:31.412Z,20.9240
2023-04-17T06:58:34.030Z,20.9187
2023-04-17T06:59:36.575Z,20.9177
2023-04-17T07:00:39.200Z,20.9219
2023-04-17T07:01:41.826Z,20.9239
2023-04-17T07:02:44.433Z,20.9248
2023-04-17T07:03:47.082Z,20.9281
2023-04-17T07:04:49.784Z,20.9351
2023-04-17T07:05:52.084Z,20.9393
2023-04-17T07:06:54.684Z,20.9423
2023-04-17T07:07:57.237Z,20.9472
2023-04-17T07:09:00.120Z,20.9529
2023-04-17T07:10:02.413Z,20.9543
2023-04-17T07:11:05.048Z,20.9564
2023-04-17T07:12:07.589Z,20.9597
2023-04-17T07:13:10.192Z,20.9605
2023-04-17T07:14:12.973Z,20.9658
2023-04-17T07:15:15.523Z,20.9721
2023-04-17T07:16:17.981Z,20.9764
2023-04-17T07:17:20.613Z,20.9828
2023-04-17T07:18:23.095Z,20.9909
2023-04-17T07:19:25.703Z,21.0006
2023-04-17T07:20:28.283Z,21.0097
2023-04-17T07:21:30.872Z,21.0200
2023-04-17T07:22:33.434Z,21.0341
2023-04-17T07:23:36.035Z,21.0472
2023-04-17T07:24:38.603Z,21.0583
2023-04-17T07:25:41.235Z,21.0621
2023-04-17T07:26:44.040Z,21.0672
2023-04-17T07:27:46.382Z,21.0635
2023-04-17T07:28:48.942Z,21.0577
2023-04-17T07:29:51.564Z,21.0541
2023-04-17T07:30:54.107Z,21.0510
2023-04-17T07:31:56.928Z,21.0491
2023-04-17T07:32:59.534Z,21.0509
2023-04-17T07:34:01.925Z,21.0529
2023-04-17T07:35:04.494Z,21.0561
2023-04-17T07:36:07.072Z,21.0607
2023-04-17T07:37:09.632Z,21.0676
2023-04-17T07:38:12.254Z,21.0701
2023-04-17T07:39:14.855Z,21.0695
2023-04-17T07:40:17.410Z,21.0720
2023-04-17T07:41:19.971Z,21.0720
2023-04-17T07:42:22.661Z,21.0715
2023-04-17T07:43:25.206Z,21.0682
2023-04-17T07:44:27.766Z,21.0684
2023-04-17T07:45:30.334Z,21.0732
2023-04-17T07:46:33.005Z,21.0776
2023-04-17T07:47:35.557Z,21.0815
2023-04-17T07:48:38.117Z,21.0833
2023-04-17T07:49:40.675Z,21.0848
2023-04-17T07:50:43.276Z,21.0831
2023-04-17T07:51:45.830Z,21.0828
2023-04-17T07:52:48.453Z,21.0855
2023-04-17T07:53:51.031Z,21.0894
2023-04-17T07:54:53.628Z,21.0890
2023-04-17T07:55:56.228Z,21.0902
2023-04-17T07:56:58.856Z,21.0911
2023-04-17T07:58:01.345Z,21.0918
2023-04-17T07:59:03.958Z,21.0930
2023-04-17T08:00:06.511Z,21.0923
2023-04-17T08:01:09.126Z,21.0950
2023-04-17T08:02:11.800Z,21.0966
2023-04-17T08:03:14.504Z,21.0997
2023-04-17T08:04:17.338Z,21.1047
2023-04-17T08:05:19.531Z,21.1081
2023-04-17T08:06:22.023Z,21.1115
2023-04-17T08:07:24.668Z,21.1124
2023-04-17T08:08:27.202Z,21.1174
2023-04-17T08:09:29.815Z,21.1223
2023-04-17T08:10:32.372Z,21.1268
2023-04-17T08:11:40.095Z,21.1334
2023-04-17T08:12:38.823Z,21.1395
2023-04-17T08:13:40.150Z,21.1451
2023-04-17T08:14:42.709Z,21.1504
2023-04-17T08:15:45.329Z,21.1575
2023-04-17T08:16:47.952Z,21.1621
2023-04-17T08:17:50.526Z,21.1654
2023-04-17T08:18:53.055Z,21.1663
2023-04-17T08:19:55.692Z,21.1695
2023-04-17T08:20:58.217Z,21.1677
2023-04-17T08:22:00.837Z,21.1658
2023-04-17T08:23:03.402Z,21.1621
2023-04-17T08:24:06.003Z,21.1562
2023-04-17T08:25:08.557Z,21.1505
2023-04-17T08:26:11.167Z,21.1459
2023-04-17T08:27:13.730Z,21.1427
2023-04-17T08:28:16.379Z,21.1383
2023-04-17T08:29:18.951Z,21.1350
2023-04-17T08:30:21.496Z,21.1351
2023-04-17T08:31:24.177Z,21.1336
2023-04-17T08:32:26.674Z,21.1349
2023-04-17T08:33:29.224Z,21.1363
2023-04-17T08:34:31.987Z,21.1375
2023-04-17T08:35:34.389Z,21.1417
2023-04-17T08:36:37.001Z,21.1456
2023-04-17T08:37:39.569Z,21.1491
2023-04-17T08:38:42.208Z,21.1513
2023-04-17T08:39:44.730Z,21.1598
2023-04-17T08:40:47.357Z,21.1734
2023-04-17T08:41:49.893Z,21.1982
2023-04-17T08:42:52.505Z,21.2220
2023-04-17T08:43:55.078Z,21.2416
2023-04-17T08:44:57.666Z,21.2574
2023-04-17T08:46:00.604Z,21.2709
2023-04-17T08:47:02.840Z,21.2833
2023-04-17T08:48:05.424Z,21.2961
2023-04-17T08:49:08.015Z,21.3107
2023-04-17T08:50:10.595Z,21.3273
2023-04-17T08:51:13.178Z,21.3443
2023-04-17T08:52:15.746Z,21.3636
2023-04-17T08:53:18.341Z,21.3890
2023-04-17T08:54:20.897Z,21.4078
2023-04-17T08:55:23.522Z,21.4149
2023-04-17T08:56:26.076Z,21.4151
2023-04-17T08:57:28.675Z,21.4134
2023-04-17T08:58:31.236Z,21.4143
2023-04-17T08:59:33.867Z,21.4164
2023-04-17T09:00:36.435Z,21.4142
2023-04-17T09:01:39.089Z,21.4090
2023-04-17T09:02:41.716Z,21.4070
2023-04-17T09:03:44.338Z,21.4085
2023-04-17T09:04:46.859Z,21.4141
2023-04-17T09:05:49.359Z,21.4180
2023-04-17T09:06:52.025Z,21.4166
2023-04-17T09:07:54.528Z,21.4140
2023-04-17T09:08:57.086Z,21.4119
2023-04-17T09:09:59.708Z,21.4072
2023-04-17T09:11:02.276Z,21.3997
2023-04-17T09:12:04.890Z,21.3865
2023-04-17T09:13:07.474Z,21.3728
2023-04-17T09:14:10.037Z,21.3644
2023-04-17T09:15:12.603Z,21.3554
2023-04-17T09:16:15.281Z,21.3497
2023-04-17T09:17:17.770Z,21.3427
2023-04-17T09:18:20.451Z,21.3338
2023-04-17T09:19:23.133Z,21.3209
2023-04-17T09:20:25.772Z,21.3086
2023-04-17T09:21:28.174Z,21.2978
2023-04-17T09:22:30.792Z,21.2888
2023-04-17T09:23:33.352Z,21.2838
2023-04-17T09:24:36.316Z,21.2798
2023-04-17T09:25:38.514Z,21.2797
2023-04-17T09:26:41.135Z,21.2868
2023-04-17T09:27:43.682Z,21.2960
2023-04-17T09:28:46.303Z,21.3056
2023-04-17T09:29:48.854Z,21.3104
2023-04-17T09:30:51.466Z,21.3163
2023-04-17T09:31:54.095Z,21.3194
2023-04-17T09:32:56.785Z,21.3214
2023-04-17T09:33:59.216Z,21.3197
2023-04-17T09:35:01.825Z,21.3167
2023-04-17T09:36:04.401Z,21.3111
2023-04-17T09:37:07.969Z,21.3068
2023-04-17T09:38:09.559Z,21.3059
2023-04-17T09:39:12.242Z,21.3045
2023-04-17T09:40:14.723Z,21.3039
2023-04-17T09:41:17.407Z,21.3016
2023-04-17T09:42:19.914Z,21.2998
2023-04-17T09:43:22.442Z,21.2955
2023-04-17T09:44:25.057Z,21.2908
2023-04-17T09:45:48.604Z,21.2835
2023-04-17T09:46:30.250Z,21.2744
2023-04-17T09:47:32.838Z,21.2725
2023-04-17T09:48:35.368Z,21.2726
2023-04-17T09:49:38.198Z,21.2775
2023-04-17T09:50:40.527Z,21.2873
2023-04-17T09:51:43.155Z,21.2961
2023-04-17T09:52:45.713Z,21.3050
2023-04-17T09:53:48.363Z,21.3166
2023-04-17T09:54:50.849Z,21.3267
2023-04-17T09:55:53.467Z,21.3296
2023-04-17T09:56:56.213Z,21.3281
2023-04-17T09:57:58.625Z,21.3205
2023-04-17T09:59:01.193Z,21.3129
2023-04-17T10:00:03.786Z,21.3028
2023-04-17T10:01:06.401Z,21.2945
2023-04-17T10:02:09.092Z,21.2863
2023-04-17T10:03:11.760Z,21.2810
2023-04-17T10:04:14.440Z,21.2809
2023-04-17T10:05:16.672Z,21.2803
2023-04-17T10:06:19.306Z,21.2930
2023-04-17T10:07:21.842Z,21.3107
2023-04-17T10:08:24.451Z,21.3270
2023-04-17T10:09:27.043Z,21.3425
2023-04-17T10:10:29.670Z,21.3499
2023-04-17T10:11:32.196Z,21.3517
2023-04-17T10:12:35.113Z,21.3588
2023-04-17T10:13:37.337Z,21.3785
2023-04-17T10:14:39.953Z,21.3967
2023-04-17T10:15:42.500Z,21.3939
2023-04-17T10:16:45.327Z,21.1841
2023-04-17T10:17:47.677Z,20.8570
2023-04-17T10:18:50.293Z,20.5959
2023-04-17T10:19:52.852Z,20.5649
2023-04-17T10:20:55.534Z,20.6799
2023-04-17T10:21:58.006Z,20.8030
2023-04-17T10:23:00.617Z,20.9020
2023-04-17T10:24:03.174Z,20.9876
2023-04-17T10:25:05.768Z,21.0554
2023-04-17T10:26:08.335Z,21.1083
2023-04-17T10:27:10.958Z,21.1598
2023-04-17T10:28:13.507Z,21.2063
2023-04-17T10:29:16.109Z,21.2384
2023-04-17T10:31:21.311Z,21.2645
2023-04-17T10:32:23.818Z,21.2733
2023-04-17T10:33:26.470Z,21.2802
2023-04-17T10:34:29.045Z,21.2855
2023-04-17T10:35:31.603Z,21.2946
2023-04-17T10:36:34.156Z,21.3030
2023-04-17T10:37:36.764Z,21.3131
2023-04-17T10:38:39.319Z,21.3211
2023-04-17T10:39:41.928Z,21.3268
2023-04-17T10:40:44.548Z,21.3223
2023-04-17T10:41:47.106Z,21.3188
2023-04-17T10:42:49.661Z,21.3191
2023-04-17T10:43:52.290Z,21.3207
2023-04-17T10:44:54.845Z,21.3233
2023-04-17T10:45:57.531Z,21.3211
2023-04-17T10:46:59.993Z,21.3201
2023-04-17T10:48:02.697Z,21.3227
2023-04-17T10:49:05.185Z,21.3191
2023-04-17T10:50:07.790Z,21.3113
2023-04-17T10:51:10.355Z,21.3041
2023-04-17T10:52:12.944Z,21.2956
2023-04-17T10:53:15.504Z,21.2883
2023-04-17T10:54:18.114Z,21.2814
2023-04-17T10:55:20.686Z,21.2765
2023-04-17T10:56:23.285Z,21.2724
2023-04-17T10:57:26.176Z,21.2731
2023-04-17T10:58:31.616Z,21.2755
2023-04-17T10:59:31.010Z,21.2860
2023-04-17T11:00:33.628Z,21.3125
2023-04-17T11:01:36.197Z,21.3460
2023-04-17T11:02:38.841Z,21.3060
2023-04-17T11:03:41.375Z,21.0632
2023-04-17T11:04:43.979Z,20.7578
2023-04-17T11:05:46.524Z,20.7286
2023-04-17T11:06:49.136Z,20.8263
2023-04-17T11:07:51.676Z,20.9227
2023-04-17T11:08:55.615Z,21.0010
2023-04-17T11:09:56.824Z,21.0627
2023-04-17T11:10:59.461Z,21.1139
2023-04-17T11:12:02.383Z,21.1516
2023-04-17T11:13:04.606Z,21.1751
2023-04-17T11:14:07.152Z,21.1952
2023-04-17T11:15:09.818Z,21.2138
2023-04-17T11:16:12.318Z,21.2323
2023-04-17T11:17:14.954Z,21.2522
